Flag for USA

Past Weather in 42°05'59.7"N, 87°48'03.2"W, USA — Yesterday and Last 2 Weeks

Currently: 78 °F. Passing clouds. (Weather station: Chicago Midway Airport, USA). See more current weather

Past Weather in 42°05'59.7"N, 87°48'03.2"W — Graph

°F

42°05'59.7"N, 87°48'03.2"W Temperature Yesterday

Maximum temperature yesterday: 86 °F (at 4:53 pm)
Minimum temperature yesterday: 70 °F (at 3:53 am)
Average temperature yesterday: 78 °F

High & Low Weather Summary for the Past Weeks

 TemperatureHumidityPressure
High91 °F (Jul 13, 2:53 pm)93% (Jul 7, 5:53 pm)30.14 "Hg (Jul 7, 5:53 pm)
Low66 °F (Jul 6, 4:53 am)30% (Jul 2, 3:53 pm)29.61 "Hg (Jul 15, 8:53 pm)
Average77 °F68%29.90 "Hg
* Reported Jul 2 7:53 am — Jul 17 7:53 am, 42°05'59.7"N, 87°48'03.2"W. Weather by CustomWeather, © 2024

Note: Actual official high and low records may vary slightly from our data, if they occured in-between our weather recording intervals... More about our weather records

42°05'59.7"N, 87°48'03.2"W Weather History for the Previous 24 Hours

Scroll right to see more
 ConditionsComfort  
Time TempWeatherWind HumidityBarometerVisibility
7:53 am
Wed, Jul 17
75 °FScattered clouds.10 mph64%29.90 "Hg10 mi
6:53 am73 °FScattered clouds.10 mph71%29.89 "Hg10 mi
5:53 am73 °FBroken clouds.10 mph79%29.87 "Hg10 mi
4:53 am73 °FPassing clouds.5 mph88%29.85 "Hg9 mi
3:53 am73 °FPassing clouds.7 mph84%29.83 "Hg10 mi
2:53 am74 °FPassing clouds.5 mph85%29.83 "Hg10 mi
1:53 am75 °FPartly cloudy.5 mph82%29.83 "Hg10 mi
12:53 am76 °FMostly cloudy.No wind80%29.83 "Hg10 mi
11:53 pm
Tue, Jul 16
76 °FOvercast.5 mph80%29.86 "Hg10 mi
10:53 pm77 °FPassing clouds.6 mph69%29.83 "Hg10 mi
9:53 pm77 °FPartly cloudy.6 mph69%29.81 "Hg10 mi
8:53 pm78 °FPassing clouds.5 mph69%29.80 "Hg10 mi
7:53 pm79 °FBroken clouds.9 mph69%29.79 "Hg10 mi
7:25 pm79 °FBroken clouds.14 mph74%29.82 "Hg10 mi
6:53 pm85 °FBroken clouds.12 mph50%29.78 "Hg10 mi
5:53 pm86 °FBroken clouds.15 mph49%29.77 "Hg10 mi
4:53 pm86 °FBroken clouds.15 mph51%29.77 "Hg10 mi
3:53 pm85 °FBroken clouds.16 mph61%29.78 "Hg10 mi
2:53 pm84 °FPartly sunny.10 mph63%29.79 "Hg10 mi
1:53 pm85 °FBroken clouds.13 mph59%29.77 "Hg10 mi
12:53 pm84 °FBroken clouds.13 mph61%29.77 "Hg10 mi
12:19 pm82 °FPartly sunny.13 mph67%29.81 "Hg10 mi
11:53 am81 °FScattered clouds.14 mph69%29.78 "Hg10 mi
10:53 am80 °FScattered clouds.9 mph69%29.77 "Hg10 mi
9:53 am77 °FScattered clouds.10 mph77%29.77 "Hg10 mi
Weather by CustomWeather, © 2024

See weather overview